Time;durP1;ratioP1;P1;durP2;ratioP2;P2;SDS_P1;SDS_P2;PMS_P1;PMS_P2;Temp;Humidity;BMP_temperature;BMP_pressure;BME280_temperature;BME280_humidity;BME280_pressure;Samples;Min_cycle;Max_cycle;Signal;HPM_P1;HPM_P2
2023/09/22 03:01:09;;;;;;;;;;;13.70;99.90;;;;;;5626888;23;19926;-78
2023/09/22 03:03:36;;;;;;;;;;;13.70;99.90;;;;;;4957560;28;19994;-78
2023/09/22 03:06:02;;;;;;;;;;;13.60;99.90;;;;;;4941745;28;19922;-77
2023/09/22 03:08:27;;;;;;;;;;;13.60;99.90;;;;;;4957624;28;19922;-78
2023/09/22 03:10:53;;;;;;;;;;;13.60;99.90;;;;;;4968792;28;20269;-78
2023/09/22 03:13:18;;;;;;;;;;;13.60;99.90;;;;;;4977043;28;20020;-75
2023/09/22 03:15:44;;;;;;;;;;;13.60;99.90;;;;;;4977058;28;20449;-79
2023/09/22 03:18:09;;;;;;;;;;;13.50;99.90;;;;;;4961182;28;20428;-78
2023/09/22 03:20:35;;;;;;;;;;;13.50;99.90;;;;;;4977084;28;20388;-79
2023/09/22 03:23:01;;;;;;;;;;;13.50;99.90;;;;;;4976734;28;20396;-79
2023/09/22 03:25:26;;;;;;;;;;;13.50;99.90;;;;;;4976765;28;19921;-78
2023/09/22 03:27:52;;;;;;;;;;;13.50;99.90;;;;;;4976694;28;19922;-78
2023/09/22 03:30:17;;;;;;;;;;;13.50;99.90;;;;;;4977005;28;19922;-77
2023/09/22 03:32:43;;;;;;;;;;;13.50;99.90;;;;;;4994207;28;20377;-79
2023/09/22 03:35:08;;;;;;;;;;;13.50;99.90;;;;;;4976760;28;19922;-80
2023/09/22 03:37:34;;;;;;;;;;;13.50;99.90;;;;;;4976989;28;20016;-79
2023/09/22 03:40:10;;;;;;;;;;;13.50;99.90;;;;;;4977022;28;20285;-79
2023/09/22 03:42:36;;;;;;;;;;;13.50;99.90;;;;;;4976738;28;19935;-79
2023/09/22 03:45:01;;;;;;;;;;;13.60;99.90;;;;;;4976921;28;20325;-79
2023/09/22 03:47:27;;;;;;;;;;;13.50;99.90;;;;;;4976581;28;19922;-79
2023/09/22 03:49:52;;;;;;;;;;;13.60;99.90;;;;;;4976607;28;19921;-80
2023/09/22 03:52:18;;;;;;;;;;;13.60;99.90;;;;;;4976479;28;19926;-77
2023/09/22 03:54:44;;;;;;;;;;;13.60;99.90;;;;;;4976566;28;19926;-76
2023/09/22 03:57:09;;;;;;;;;;;13.60;99.90;;;;;;4976887;28;19922;-79
2023/09/22 03:59:35;;;;;;;;;;;13.50;99.90;;;;;;4976520;28;20377;-76
2023/09/22 04:02:00;;;;;;;;;;;13.50;99.90;;;;;;4976027;28;19921;-77
2023/09/22 04:04:28;;;;;;;;;;;13.50;99.90;;;;;;4977058;28;19922;-79
2023/09/22 04:06:54;;;;;;;;;;;13.50;99.90;;;;;;4976955;28;19926;-79
2023/09/22 04:09:19;;;;;;;;;;;13.50;99.90;;;;;;4960489;28;19922;-79
2023/09/22 04:11:45;;;;;;;;;;;13.40;99.90;;;;;;4976665;28;19926;-78
2023/09/22 04:14:10;;;;;;;;;;;13.40;99.90;;;;;;4976723;28;20277;-78
2023/09/22 04:16:36;;;;;;;;;;;13.40;99.90;;;;;;4976557;28;19929;-80
2023/09/22 04:19:03;;;;;;;;;;;13.30;99.90;;;;;;4977022;28;19922;-78
2023/09/22 04:21:29;;;;;;;;;;;13.30;99.90;;;;;;4976176;28;19961;-79
2023/09/22 04:23:58;;;;;;;;;;;13.30;99.90;;;;;;4960404;28;20031;-77
2023/09/22 04:26:28;;;;;;;;;;;13.20;99.90;;;;;;4977679;28;19961;-79
2023/09/22 04:28:55;;;;;;;;;;;13.20;99.90;;;;;;4964153;28;20376;-80
2023/09/22 04:31:22;;;;;;;;;;;13.20;99.90;;;;;;4997256;28;19922;-78
2023/09/22 04:33:47;;;;;;;;;;;13.10;99.90;;;;;;4980137;28;19944;-77
2023/09/22 04:36:13;;;;;;;;;;;13.10;99.90;;;;;;4979768;28;20416;-79
2023/09/22 04:38:38;;;;;;;;;;;13.10;99.90;;;;;;4979766;28;19921;-80
2023/09/22 04:41:04;;;;;;;;;;;13.10;99.90;;;;;;4978079;28;19926;-80
2023/09/22 04:43:29;;;;;;;;;;;13.10;99.90;;;;;;4960166;28;19934;-80
2023/09/22 04:45:55;;;;;;;;;;;13.10;99.90;;;;;;4960124;28;19922;-80
2023/09/22 04:48:20;;;;;;;;;;;13.10;99.90;;;;;;4960063;28;19945;-80
2023/09/22 04:50:52;;;;;;;;;;;13.10;99.90;;;;;;4959986;28;19922;-79
2023/09/22 04:53:18;;;;;;;;;;;13.10;99.90;;;;;;4960413;28;19922;-80
2023/09/22 04:55:44;;;;;;;;;;;13.10;99.90;;;;;;4959855;28;19937;-80
2023/09/22 04:58:09;;;;;;;;;;;13.00;99.90;;;;;;4959916;28;19922;-80
2023/09/22 05:00:36;;;;;;;;;;;13.00;99.90;;;;;;4959925;28;19942;-78
2023/09/22 05:03:02;;;;;;;;;;;13.00;99.90;;;;;;4959809;28;20449;-79
2023/09/22 05:05:28;;;;;;;;;;;13.00;99.90;;;;;;4960023;28;19922;-80
2023/09/22 05:07:54;;;;;;;;;;;13.00;99.90;;;;;;4959737;28;19980;-79
2023/09/22 05:10:19;;;;;;;;;;;13.00;99.90;;;;;;4959908;28;19922;-79
2023/09/22 05:12:45;;;;;;;;;;;13.00;99.90;;;;;;4976994;28;19973;-79
2023/09/22 05:15:10;;;;;;;;;;;13.00;99.90;;;;;;4959648;28;19988;-79
2023/09/22 05:17:36;;;;;;;;;;;13.00;99.90;;;;;;4959545;28;20020;-80
2023/09/22 05:20:11;;;;;;;;;;;13.00;99.90;;;;;;4959451;28;20025;-79
2023/09/22 05:22:37;;;;;;;;;;;13.00;99.90;;;;;;4959763;28;19926;-79
2023/09/22 05:25:04;;;;;;;;;;;13.00;99.90;;;;;;4959232;28;20008;-78
2023/09/22 05:27:30;;;;;;;;;;;13.00;99.90;;;;;;4959240;28;20373;-80
2023/09/22 05:29:56;;;;;;;;;;;13.00;99.90;;;;;;4960839;28;20030;-79
2023/09/22 05:32:21;;;;;;;;;;;13.00;99.90;;;;;;4959249;28;19922;-80
2023/09/22 05:34:47;;;;;;;;;;;13.00;99.90;;;;;;4959292;28;19973;-79
2023/09/22 05:37:12;;;;;;;;;;;13.00;99.90;;;;;;4959349;28;19922;-80
2023/09/22 05:39:38;;;;;;;;;;;12.90;99.90;;;;;;4959429;28;19961;-80
2023/09/22 05:42:04;;;;;;;;;;;12.90;99.90;;;;;;4959137;28;19977;-80
2023/09/22 05:44:30;;;;;;;;;;;12.90;99.90;;;;;;4943291;28;20270;-80
2023/09/22 05:46:55;;;;;;;;;;;12.90;99.90;;;;;;4959781;28;19922;-82
2023/09/22 05:49:21;;;;;;;;;;;12.90;99.90;;;;;;4976825;28;19929;-80
2023/09/22 05:51:48;;;;;;;;;;;12.90;99.90;;;;;;4959254;28;19973;-81
2023/09/22 05:54:14;;;;;;;;;;;12.90;99.90;;;;;;4958807;28;19926;-80
2023/09/22 05:56:40;;;;;;;;;;;12.90;99.90;;;;;;4958614;28;19922;-80
2023/09/22 05:59:06;;;;;;;;;;;12.90;99.90;;;;;;4958811;28;19929;-80
2023/09/22 06:01:37;;;;;;;;;;;12.90;99.90;;;;;;4958459;28;19922;-79
2023/09/22 06:04:06;;;;;;;;;;;12.90;99.90;;;;;;4958610;28;20021;-78
2023/09/22 06:06:32;;;;;;;;;;;12.90;99.90;;;;;;4942866;28;19922;-77
2023/09/22 06:08:58;;;;;;;;;;;12.90;99.90;;;;;;4958558;28;19937;-78
2023/09/22 06:11:23;;;;;;;;;;;12.90;99.90;;;;;;4958760;28;19922;-78
2023/09/22 06:13:49;;;;;;;;;;;12.90;99.90;;;;;;4958314;28;20529;-78
2023/09/22 06:16:14;;;;;;;;;;;12.90;99.90;;;;;;4958411;28;20016;-77
2023/09/22 06:18:40;;;;;;;;;;;12.90;99.90;;;;;;4958260;28;19969;-78
2023/09/22 06:21:06;;;;;;;;;;;12.90;99.90;;;;;;4958129;28;19961;-78
2023/09/22 06:23:32;;;;;;;;;;;13.00;99.90;;;;;;4958153;28;19973;-78
2023/09/22 06:26:02;;;;;;;;;;;13.00;99.90;;;;;;4958491;28;19922;-80
2023/09/22 06:28:27;;;;;;;;;;;13.00;99.90;;;;;;4958457;28;19992;-78
2023/09/22 06:30:58;;;;;;;;;;;13.00;99.90;;;;;;4958530;28;20317;-79
2023/09/22 06:33:24;;;;;;;;;;;13.00;99.90;;;;;;4958124;28;20095;-79
2023/09/22 06:35:55;;;;;;;;;;;13.10;99.90;;;;;;4957950;28;19926;-80
2023/09/22 06:38:22;;;;;;;;;;;13.10;99.90;;;;;;4958332;28;19928;-79
2023/09/22 06:40:47;;;;;;;;;;;13.10;99.90;;;;;;4957970;28;19922;-78
2023/09/22 06:43:13;;;;;;;;;;;13.10;99.90;;;;;;4941873;28;19972;-79
2023/09/22 06:45:39;;;;;;;;;;;13.20;99.90;;;;;;4957882;28;19965;-77
2023/09/22 06:48:08;;;;;;;;;;;13.20;99.90;;;;;;4957717;28;19952;-79
2023/09/22 06:50:34;;;;;;;;;;;13.20;99.90;;;;;;4957513;28;19937;-79
2023/09/22 06:52:59;;;;;;;;;;;13.20;99.90;;;;;;4957796;28;20409;-78
2023/09/22 06:55:25;;;;;;;;;;;13.20;99.90;;;;;;4958087;28;20020;-77
2023/09/22 06:57:52;;;;;;;;;;;13.20;99.90;;;;;;4958072;28;19922;-80
2023/09/22 07:00:23;;;;;;;;;;;13.20;99.90;;;;;;4957881;28;20353;-80
2023/09/22 07:02:49;;;;;;;;;;;13.20;99.90;;;;;;4957715;28;19926;-78
2023/09/22 07:05:15;;;;;;;;;;;13.30;99.90;;;;;;4957592;28;19926;-78
2023/09/22 07:07:40;;;;;;;;;;;13.30;99.90;;;;;;4957888;28;19922;-77
2023/09/22 07:10:10;;;;;;;;;;;13.30;99.90;;;;;;4957565;28;19929;-80
2023/09/22 07:12:39;;;;;;;;;;;13.30;99.90;;;;;;4974884;28;19922;-80
2023/09/22 07:15:06;;;;;;;;;;;13.40;99.90;;;;;;4941819;28;19926;-81
2023/09/22 07:17:31;;;;;;;;;;;13.40;99.90;;;;;;4957528;28;20014;-78
2023/09/22 07:20:00;;;;;;;;;;;13.40;99.90;;;;;;4957851;28;19926;-77
2023/09/22 07:22:30;;;;;;;;;;;13.40;99.90;;;;;;4957717;28;20362;-81
2023/09/22 07:24:56;;;;;;;;;;;13.40;99.90;;;;;;4957517;28;19929;-79
2023/09/22 07:27:23;;;;;;;;;;;13.40;99.90;;;;;;4941861;28;19922;-80
2023/09/22 07:29:50;;;;;;;;;;;13.50;99.90;;;;;;4957723;28;20263;-79
2023/09/22 07:32:16;;;;;;;;;;;13.50;99.90;;;;;;4957784;28;19973;-76
2023/09/22 07:34:42;;;;;;;;;;;13.50;99.90;;;;;;4957332;28;19922;-77
2023/09/22 07:37:11;;;;;;;;;;;13.50;99.90;;;;;;4957532;28;19922;-78
2023/09/22 07:39:39;;;;;;;;;;;13.50;99.90;;;;;;4957421;28;19922;-76
2023/09/22 07:42:06;;;;;;;;;;;13.50;99.90;;;;;;4957518;28;20084;-78
2023/09/22 07:44:31;;;;;;;;;;;13.50;99.90;;;;;;4957749;28;19981;-79
2023/09/22 07:46:58;;;;;;;;;;;13.50;99.90;;;;;;4957240;28;19929;-80
2023/09/22 07:49:25;;;;;;;;;;;13.50;99.90;;;;;;4957532;28;19926;-82
2023/09/22 07:51:51;;;;;;;;;;;13.50;99.90;;;;;;4957021;28;19961;-78
2023/09/22 07:54:17;;;;;;;;;;;13.50;99.90;;;;;;4941589;28;19961;-78
2023/09/22 07:56:42;;;;;;;;;;;13.50;99.90;;;;;;4957653;28;20001;-78
2023/09/22 07:59:08;;;;;;;;;;;13.50;99.90;;;;;;4957419;28;20024;-78
2023/09/22 08:01:33;;;;;;;;;;;13.50;99.90;;;;;;4959076;28;19969;-78
2023/09/22 08:03:59;;;;;;;;;;;13.60;99.90;;;;;;4960856;28;20343;-77
2023/09/22 08:06:27;;;;;;;;;;;13.70;99.90;;;;;;4961318;28;19974;-79
2023/09/22 08:08:52;;;;;;;;;;;13.70;99.90;;;;;;4978045;28;19922;-79
2023/09/22 08:11:18;;;;;;;;;;;13.70;99.90;;;;;;4961320;28;19928;-80
2023/09/22 08:13:45;;;;;;;;;;;13.80;99.90;;;;;;4961344;28;19933;-79
2023/09/22 08:16:12;;;;;;;;;;;13.90;99.90;;;;;;4961082;28;19969;-83
2023/09/22 08:18:40;;;;;;;;;;;13.90;99.90;;;;;;4960580;28;20374;-81
2023/09/22 08:21:09;;;;;;;;;;;13.90;99.90;;;;;;4977834;28;20381;-82
2023/09/22 08:23:35;;;;;;;;;;;14.00;99.90;;;;;;4977640;28;19926;-80
2023/09/22 08:26:08;;;;;;;;;;;14.10;99.90;;;;;;4960434;28;19930;-81
2023/09/22 08:28:34;;;;;;;;;;;14.20;99.90;;;;;;4993123;28;19922;-81
2023/09/22 08:30:59;;;;;;;;;;;14.30;99.90;;;;;;4980001;28;19929;-81
2023/09/22 08:33:25;;;;;;;;;;;14.30;99.90;;;;;;4997386;28;20289;-80
2023/09/22 08:35:51;;;;;;;;;;;14.40;99.90;;;;;;4979794;28;19980;-81
2023/09/22 08:38:17;;;;;;;;;;;14.50;99.90;;;;;;4997282;28;19929;-82
2023/09/22 08:40:48;;;;;;;;;;;14.40;99.90;;;;;;4980337;28;19922;-82
2023/09/22 08:43:15;;;;;;;;;;;14.50;99.90;;;;;;4997156;28;20274;-81
2023/09/22 08:45:41;;;;;;;;;;;14.50;99.90;;;;;;4963782;28;20323;-82
2023/09/22 08:48:07;;;;;;;;;;;14.50;99.90;;;;;;4996969;28;20016;-81
2023/09/22 08:50:33;;;;;;;;;;;14.50;99.90;;;;;;4996719;28;20016;-81
2023/09/22 08:52:59;;;;;;;;;;;14.60;99.90;;;;;;4997155;28;19953;-81
2023/09/22 08:55:26;;;;;;;;;;;14.70;99.90;;;;;;4979233;28;19929;-81
2023/09/22 08:57:53;;;;;;;;;;;14.60;99.90;;;;;;4997204;28;19929;-81
2023/09/22 09:00:20;;;;;;;;;;;14.60;99.90;;;;;;4979123;28;19929;-81
2023/09/22 09:02:46;;;;;;;;;;;14.60;99.90;;;;;;4996870;28;19965;-81
2023/09/22 09:05:28;;;;;;;;;;;14.60;99.90;;;;;;4979145;28;19921;-81
2023/09/22 09:07:55;;;;;;;;;;;14.50;99.90;;;;;;4996832;28;19932;-81
2023/09/22 09:10:29;;;;;;;;;;;14.50;99.90;;;;;;4979219;28;19928;-80
2023/09/22 09:12:54;;;;;;;;;;;14.60;99.90;;;;;;4979081;28;19941;-80
2023/09/22 09:15:25;;;;;;;;;;;14.70;99.90;;;;;;4979344;28;19949;-81
2023/09/22 09:18:04;;;;;;;;;;;14.80;99.90;;;;;;4979083;28;19922;-80
2023/09/22 09:20:31;;;;;;;;;;;14.80;99.90;;;;;;4978885;28;19921;-81
2023/09/22 09:22:56;;;;;;;;;;;14.80;99.90;;;;;;4978741;28;19965;-79
2023/09/22 09:25:22;;;;;;;;;;;14.80;99.90;;;;;;4996296;28;19976;-79
2023/09/22 09:27:58;;;;;;;;;;;14.80;99.90;;;;;;4995966;28;20362;-79
2023/09/22 09:30:24;;;;;;;;;;;14.80;99.90;;;;;;4995705;28;20024;-81
2023/09/22 09:32:50;;;;;;;;;;;14.90;99.90;;;;;;4978740;28;19976;-80
2023/09/22 09:35:26;;;;;;;;;;;14.80;99.90;;;;;;4996157;28;19968;-81
2023/09/22 09:38:00;;;;;;;;;;;14.80;99.90;;;;;;4978885;28;19965;-80
2023/09/22 09:40:25;;;;;;;;;;;14.80;99.90;;;;;;4996096;28;20321;-80
2023/09/22 09:42:52;;;;;;;;;;;14.80;99.90;;;;;;4995878;28;19984;-77
2023/09/22 09:45:18;;;;;;;;;;;14.90;99.90;;;;;;4995964;28;19961;-79
2023/09/22 09:47:45;;;;;;;;;;;15.00;99.90;;;;;;4995897;28;19933;-79
2023/09/22 09:50:12;;;;;;;;;;;15.20;99.90;;;;;;4995889;28;19980;-81
2023/09/22 09:52:55;;;;;;;;;;;15.30;99.90;;;;;;4995876;28;19922;-81
2023/09/22 09:55:21;;;;;;;;;;;15.30;99.90;;;;;;4962997;28;19958;-81
2023/09/22 09:57:49;;;;;;;;;;;15.30;99.90;;;;;;4979302;28;19929;-80
2023/09/22 10:00:21;;;;;;;;;;;15.30;99.90;;;;;;4978284;28;19926;-81
2023/09/22 10:02:47;;;;;;;;;;;15.30;99.90;;;;;;4978061;28;20297;-80
2023/09/22 10:05:17;;;;;;;;;;;15.20;99.90;;;;;;4978526;28;20270;-78
2023/09/22 10:07:43;;;;;;;;;;;15.20;99.90;;;;;;4995467;28;19929;-81
2023/09/22 10:10:10;;;;;;;;;;;15.20;99.90;;;;;;4978114;28;20401;-80
2023/09/22 10:12:36;;;;;;;;;;;15.10;99.90;;;;;;4995051;28;19922;-79
2023/09/22 10:15:04;;;;;;;;;;;15.10;99.90;;;;;;4995416;28;19922;-79
2023/09/22 10:17:30;;;;;;;;;;;15.00;99.90;;;;;;4977727;28;19929;-79
2023/09/22 10:19:56;;;;;;;;;;;15.00;99.90;;;;;;4995399;28;19922;-82
2023/09/22 10:22:22;;;;;;;;;;;15.00;99.90;;;;;;4994862;28;19926;-81
2023/09/22 10:25:06;;;;;;;;;;;15.20;99.90;;;;;;4994304;28;19922;-79
2023/09/22 10:27:52;;;;;;;;;;;15.40;99.90;;;;;;4977420;28;20298;-80
2023/09/22 10:30:19;;;;;;;;;;;15.70;99.90;;;;;;4977821;28;19922;-80
2023/09/22 10:32:45;;;;;;;;;;;15.70;99.90;;;;;;4961420;28;20023;-80
2023/09/22 10:35:12;;;;;;;;;;;15.90;99.90;;;;;;4977549;28;20008;-79
2023/09/22 10:37:55;;;;;;;;;;;16.00;99.90;;;;;;4977988;28;20008;-80
2023/09/22 10:40:22;;;;;;;;;;;16.10;99.90;;;;;;4977339;28;19926;-80
2023/09/22 10:42:52;;;;;;;;;;;16.20;99.90;;;;;;4994607;28;19926;-80
2023/09/22 10:45:21;;;;;;;;;;;16.30;99.90;;;;;;4977443;28;19928;-80
2023/09/22 10:47:47;;;;;;;;;;;16.30;99.90;;;;;;4977233;28;19922;-81
2023/09/22 10:50:21;;;;;;;;;;;16.20;99.90;;;;;;4977333;28;19964;-79
2023/09/22 10:52:54;;;;;;;;;;;16.10;99.90;;;;;;4977107;28;20373;-79
2023/09/22 10:55:25;;;;;;;;;;;16.00;99.90;;;;;;4994810;28;20005;-80
2023/09/22 10:57:51;;;;;;;;;;;16.10;99.90;;;;;;4977308;28;20357;-79
2023/09/22 11:00:18;;;;;;;;;;;16.10;99.90;;;;;;4977208;28;19928;-80
2023/09/22 11:02:44;;;;;;;;;;;16.20;99.90;;;;;;4977344;28;20318;-78
2023/09/22 11:05:13;;;;;;;;;;;16.20;99.90;;;;;;4978324;28;19922;-77
2023/09/22 11:07:41;;;;;;;;;;;16.20;99.90;;;;;;4995006;28;19976;-80
2023/09/22 11:10:07;;;;;;;;;;;16.10;99.90;;;;;;4994701;28;19926;-81
2023/09/22 11:12:33;;;;;;;;;;;16.20;99.90;;;;;;4994637;28;19930;-80
2023/09/22 11:15:00;;;;;;;;;;;16.20;99.90;;;;;;4994931;28;19921;-79
2023/09/22 11:17:38;;;;;;;;;;;16.30;99.90;;;;;;4994895;28;19922;-80
2023/09/22 11:20:12;;;;;;;;;;;16.40;99.90;;;;;;4961544;28;19922;-80
2023/09/22 11:22:39;;;;;;;;;;;16.40;99.90;;;;;;4994579;28;19926;-80
2023/09/22 11:25:05;;;;;;;;;;;16.50;99.90;;;;;;4977251;28;19925;-76
2023/09/22 11:27:31;;;;;;;;;;;16.40;99.90;;;;;;4976991;28;19922;-81
2023/09/22 11:30:11;;;;;;;;;;;16.50;99.90;;;;;;4977681;28;19976;-80
2023/09/22 11:32:37;;;;;;;;;;;16.60;99.90;;;;;;4960867;28;20396;-79
2023/09/22 11:35:03;;;;;;;;;;;16.60;99.90;;;;;;4978048;28;19922;-80
2023/09/22 11:37:31;;;;;;;;;;;16.50;99.90;;;;;;4981292;28;19941;-81
2023/09/22 11:39:57;;;;;;;;;;;16.40;99.90;;;;;;4998272;28;19973;-80
2023/09/22 11:42:23;;;;;;;;;;;16.40;99.90;;;;;;4981535;28;20298;-80
2023/09/22 11:44:58;;;;;;;;;;;16.40;99.90;;;;;;4964583;28;20017;-81
2023/09/22 11:47:24;;;;;;;;;;;16.20;99.90;;;;;;4997869;28;20387;-78
2023/09/22 11:49:49;;;;;;;;;;;16.20;99.90;;;;;;4981298;28;19921;-79
2023/09/22 11:52:26;;;;;;;;;;;16.20;99.90;;;;;;4980443;28;20373;-80
2023/09/22 11:54:52;;;;;;;;;;;16.30;99.90;;;;;;4980465;28;19968;-79
2023/09/22 11:57:19;;;;;;;;;;;16.30;99.90;;;;;;4980307;28;19922;-78
2023/09/22 11:59:46;;;;;;;;;;;16.30;99.90;;;;;;4980602;28;19925;-81
2023/09/22 12:02:12;;;;;;;;;;;16.40;99.90;;;;;;4979827;28;19973;-80
2023/09/22 12:04:37;;;;;;;;;;;16.50;99.90;;;;;;4964271;28;19976;-78
2023/09/22 12:07:03;;;;;;;;;;;16.50;99.90;;;;;;4997784;28;19984;-77
2023/09/22 12:09:29;;;;;;;;;;;16.60;99.90;;;;;;4997579;28;19922;-78
2023/09/22 12:11:55;;;;;;;;;;;16.70;99.90;;;;;;4980311;28;20365;-76
2023/09/22 12:14:22;;;;;;;;;;;16.80;99.90;;;;;;4980233;28;20358;-76
2023/09/22 12:16:47;;;;;;;;;;;16.70;99.90;;;;;;4965552;28;19922;-77
2023/09/22 12:19:14;;;;;;;;;;;16.70;99.90;;;;;;4960560;28;19922;-76
2023/09/22 12:21:39;;;;;;;;;;;16.80;99.90;;;;;;4960512;28;19922;-77
2023/09/22 12:24:05;;;;;;;;;;;16.80;99.90;;;;;;4977768;28;19926;-78
2023/09/22 12:26:30;;;;;;;;;;;16.90;99.90;;;;;;4960663;28;19922;-76
2023/09/22 12:28:56;;;;;;;;;;;16.90;99.90;;;;;;4977800;28;19922;-78
2023/09/22 12:31:22;;;;;;;;;;;16.90;99.90;;;;;;4960210;28;19923;-76
2023/09/22 12:33:47;;;;;;;;;;;16.80;99.90;;;;;;4960645;28;19922;-78
2023/09/22 12:36:14;;;;;;;;;;;16.80;99.90;;;;;;4960548;28;20315;-75
2023/09/22 12:38:40;;;;;;;;;;;16.80;99.90;;;;;;4960468;28;19922;-75
2023/09/22 12:41:06;;;;;;;;;;;16.70;99.90;;;;;;4977413;28;20271;-75
2023/09/22 12:43:31;;;;;;;;;;;16.70;99.90;;;;;;4960099;28;19926;-76
2023/09/22 12:45:57;;;;;;;;;;;16.70;99.90;;;;;;4960484;28;19977;-77
2023/09/22 12:48:22;;;;;;;;;;;16.80;99.90;;;;;;4959690;28;19957;-76
2023/09/22 12:50:55;;;;;;;;;;;16.80;99.90;;;;;;4960020;28;19930;-76
2023/09/22 12:53:22;;;;;;;;;;;16.90;99.90;;;;;;4960387;28;19926;-76
2023/09/22 12:55:53;;;;;;;;;;;16.80;99.90;;;;;;4960209;28;20013;-77
2023/09/22 12:58:18;;;;;;;;;;;16.80;99.90;;;;;;4959848;28;19926;-76
2023/09/22 13:00:46;;;;;;;;;;;16.70;99.90;;;;;;4959571;28;19926;-76
2023/09/22 13:03:11;;;;;;;;;;;16.70;99.90;;;;;;4959861;28;20342;-77
2023/09/22 13:05:43;;;;;;;;;;;16.70;99.90;;;;;;4959727;28;19948;-76
2023/09/22 13:08:08;;;;;;;;;;;16.60;99.90;;;;;;4959924;28;20309;-77
2023/09/22 13:10:38;;;;;;;;;;;16.50;99.90;;;;;;4959631;28;19926;-76
2023/09/22 13:13:03;;;;;;;;;;;16.50;99.90;;;;;;4959583;28;19922;-76
2023/09/22 13:15:29;;;;;;;;;;;16.40;99.90;;;;;;4977147;28;19929;-76
2023/09/22 13:17:54;;;;;;;;;;;16.30;99.90;;;;;;4960084;28;19930;-78
2023/09/22 13:20:20;;;;;;;;;;;16.30;99.90;;;;;;4975509;28;20000;-75
2023/09/22 13:22:45;;;;;;;;;;;16.30;99.90;;;;;;4959370;28;20028;-76
2023/09/22 13:25:11;;;;;;;;;;;16.30;99.90;;;;;;4959384;28;20019;-76
2023/09/22 13:27:39;;;;;;;;;;;16.30;99.90;;;;;;4959662;28;19922;-75
2023/09/22 13:30:05;;;;;;;;;;;16.30;99.90;;;;;;4976550;28;19922;-76
2023/09/22 13:32:31;;;;;;;;;;;16.30;99.90;;;;;;4959165;28;19929;-77
2023/09/22 13:34:57;;;;;;;;;;;16.30;99.90;;;;;;4959446;28;20008;-78
2023/09/22 13:37:23;;;;;;;;;;;16.40;99.90;;;;;;4959142;28;20390;-76
2023/09/22 13:39:48;;;;;;;;;;;16.40;99.90;;;;;;4959110;28;19974;-77
2023/09/22 13:42:14;;;;;;;;;;;16.40;99.90;;;;;;4959056;28;19958;-76
2023/09/22 13:44:40;;;;;;;;;;;16.40;99.90;;;;;;4959304;28;19923;-77
2023/09/22 13:47:05;;;;;;;;;;;16.40;99.90;;;;;;4976316;28;19922;-76
2023/09/22 13:49:31;;;;;;;;;;;16.40;99.90;;;;;;4958959;28;20345;-77
2023/09/22 13:51:56;;;;;;;;;;;16.40;99.90;;;;;;4958740;28;20013;-76
2023/09/22 13:54:22;;;;;;;;;;;16.40;99.90;;;;;;4975901;28;19929;-76
2023/09/22 13:56:47;;;;;;;;;;;16.40;99.90;;;;;;4976197;28;20290;-76
2023/09/22 13:59:13;;;;;;;;;;;16.40;99.90;;;;;;4958717;28;19922;-75
2023/09/22 14:01:38;;;;;;;;;;;16.40;99.90;;;;;;4976119;28;19922;-77
2023/09/22 14:04:04;;;;;;;;;;;16.40;99.90;;;;;;4958642;28;20325;-75
2023/09/22 14:06:29;;;;;;;;;;;16.50;99.90;;;;;;4958668;28;20246;-76
2023/09/22 14:08:56;;;;;;;;;;;16.40;99.90;;;;;;4976544;28;19922;-75
2023/09/22 14:11:21;;;;;;;;;;;16.40;99.90;;;;;;4958482;28;19969;-77
2023/09/22 14:13:47;;;;;;;;;;;16.50;99.90;;;;;;4958527;28;19926;-77
2023/09/22 14:16:13;;;;;;;;;;;16.50;99.90;;;;;;4958808;28;19922;-76
2023/09/22 14:18:39;;;;;;;;;;;16.50;99.90;;;;;;4958424;28;19922;-75
2023/09/22 14:21:07;;;;;;;;;;;16.60;99.90;;;;;;4958224;28;19973;-76
2023/09/22 14:23:32;;;;;;;;;;;16.60;99.90;;;;;;4958919;28;20285;-76
2023/09/22 14:26:03;;;;;;;;;;;16.70;99.90;;;;;;4975596;28;19929;-74
2023/09/22 14:28:29;;;;;;;;;;;16.80;99.90;;;;;;4958197;28;19922;-76
2023/09/22 14:30:55;;;;;;;;;;;16.80;99.90;;;;;;4958140;28;19926;-77
2023/09/22 14:33:20;;;;;;;;;;;16.90;99.90;;;;;;4958171;28;19922;-75
2023/09/22 14:35:46;;;;;;;;;;;16.90;99.90;;;;;;4958141;28;19984;-76
2023/09/22 14:38:12;;;;;;;;;;;16.90;99.90;;;;;;4958397;28;19926;-76
2023/09/22 14:40:39;;;;;;;;;;;16.90;99.90;;;;;;4958023;28;19945;-77
2023/09/22 14:43:05;;;;;;;;;;;16.90;99.90;;;;;;4958202;28;19952;-76
2023/09/22 14:45:30;;;;;;;;;;;16.90;99.90;;;;;;4957997;28;20413;-77
2023/09/22 14:47:58;;;;;;;;;;;16.80;99.90;;;;;;4975268;28;20021;-75
2023/09/22 14:50:25;;;;;;;;;;;16.80;99.90;;;;;;4975233;28;20285;-77
2023/09/22 14:52:51;;;;;;;;;;;16.80;99.90;;;;;;4957762;28;19969;-75
2023/09/22 14:55:17;;;;;;;;;;;16.80;99.90;;;;;;4957790;28;19976;-77
2023/09/22 14:57:42;;;;;;;;;;;16.80;99.90;;;;;;4958188;28;19922;-76
2023/09/22 15:00:12;;;;;;;;;;;16.80;99.90;;;;;;4958085;28;20006;-75
2023/09/22 15:02:38;;;;;;;;;;;16.80;99.90;;;;;;4957706;28;19926;-77
2023/09/22 15:05:04;;;;;;;;;;;16.80;99.90;;;;;;4957659;28;20405;-77
2023/09/22 15:07:31;;;;;;;;;;;16.80;99.90;;;;;;4957696;28;19922;-75
2023/09/22 15:09:56;;;;;;;;;;;16.80;99.90;;;;;;4957183;28;20374;-76
2023/09/22 15:12:22;;;;;;;;;;;16.80;99.90;;;;;;4974924;28;19930;-75
2023/09/22 15:14:51;;;;;;;;;;;16.70;99.90;;;;;;4974890;28;19922;-76
2023/09/22 15:17:16;;;;;;;;;;;16.70;99.90;;;;;;4957472;28;19922;-75
2023/09/22 15:19:42;;;;;;;;;;;16.60;99.90;;;;;;4958569;28;19922;-77
2023/09/22 15:22:08;;;;;;;;;;;16.50;99.90;;;;;;4974689;28;19970;-75
2023/09/22 15:24:35;;;;;;;;;;;16.50;99.90;;;;;;4974783;28;20374;-76
2023/09/22 15:27:00;;;;;;;;;;;16.40;99.90;;;;;;4974773;28;20297;-75
2023/09/22 15:29:26;;;;;;;;;;;16.40;99.90;;;;;;4957423;28;20009;-76
2023/09/22 15:31:51;;;;;;;;;;;16.30;99.90;;;;;;4957358;28;19988;-76
2023/09/22 15:34:17;;;;;;;;;;;16.20;99.90;;;;;;4957380;28;19946;-75
2023/09/22 15:36:43;;;;;;;;;;;16.20;99.90;;;;;;4957651;28;19923;-76
2023/09/22 15:39:09;;;;;;;;;;;16.10;99.90;;;;;;4957308;28;20297;-78
2023/09/22 15:41:35;;;;;;;;;;;16.10;99.90;;;;;;4957511;28;19980;-77
2023/09/22 15:44:01;;;;;;;;;;;16.10;99.90;;;;;;4957239;28;19934;-76
2023/09/22 15:46:27;;;;;;;;;;;16.00;99.90;;;;;;4957587;28;20374;-76
2023/09/22 15:48:52;;;;;;;;;;;16.00;99.90;;;;;;4957327;28;19972;-77
2023/09/22 15:51:18;;;;;;;;;;;16.00;99.90;;;;;;4974419;28;20308;-77
2023/09/22 15:53:43;;;;;;;;;;;16.00;99.90;;;;;;4957534;28;19947;-76
2023/09/22 15:56:09;;;;;;;;;;;16.00;99.90;;;;;;4957170;28;20404;-77
2023/09/22 15:58:35;;;;;;;;;;;15.90;99.90;;;;;;4957398;28;20333;-78
2023/09/22 16:01:00;;;;;;;;;;;15.90;99.90;;;;;;4956979;28;19980;-77
2023/09/22 16:03:26;;;;;;;;;;;15.90;99.90;;;;;;4957201;28;19952;-76
2023/09/22 16:05:52;;;;;;;;;;;15.90;99.90;;;;;;4957126;28;19922;-77
2023/09/22 16:08:19;;;;;;;;;;;15.90;99.90;;;;;;4957094;28;19922;-76
2023/09/22 16:10:51;;;;;;;;;;;15.90;99.90;;;;;;4957217;28;20444;-79
2023/09/22 16:13:16;;;;;;;;;;;15.80;99.90;;;;;;4957396;28;19937;-77
2023/09/22 16:15:44;;;;;;;;;;;15.70;99.90;;;;;;4973723;28;19926;-79
2023/09/22 16:18:11;;;;;;;;;;;15.60;99.90;;;;;;4974907;28;19929;-77
2023/09/22 16:20:39;;;;;;;;;;;15.50;99.90;;;;;;4975989;28;19926;-78
2023/09/22 16:23:05;;;;;;;;;;;15.40;99.90;;;;;;4962758;28;19952;-78
2023/09/22 16:25:31;;;;;;;;;;;15.20;99.90;;;;;;4962224;28;20377;-77
2023/09/22 16:27:56;;;;;;;;;;;15.10;99.90;;;;;;4996175;28;20009;-77
2023/09/22 16:30:23;;;;;;;;;;;14.90;99.90;;;;;;4979186;28;19922;-77
2023/09/22 16:32:49;;;;;;;;;;;14.80;99.90;;;;;;4996992;28;20373;-76
2023/09/22 16:35:15;;;;;;;;;;;14.60;99.90;;;;;;4979271;28;19933;-75
2023/09/22 16:37:40;;;;;;;;;;;14.50;99.90;;;;;;4963233;28;19922;-77
2023/09/22 16:40:06;;;;;;;;;;;14.30;99.90;;;;;;4979858;28;20008;-78
2023/09/22 16:42:31;;;;;;;;;;;14.20;99.90;;;;;;4997447;28;19930;-77
2023/09/22 16:44:57;;;;;;;;;;;14.10;99.90;;;;;;4997441;28;19922;-77
2023/09/22 16:47:23;;;;;;;;;;;14.00;99.90;;;;;;4979464;28;19922;-77
2023/09/22 16:49:49;;;;;;;;;;;14.00;99.90;;;;;;4979527;28;19922;-76
2023/09/22 16:52:14;;;;;;;;;;;14.00;99.90;;;;;;4979504;28;19926;-77
2023/09/22 16:54:40;;;;;;;;;;;13.90;99.90;;;;;;4979585;28;19965;-78
2023/09/22 16:57:06;;;;;;;;;;;14.00;99.90;;;;;;4979536;28;19944;-77
2023/09/22 16:59:32;;;;;;;;;;;14.00;99.90;;;;;;4979405;28;20428;-77
2023/09/22 17:01:58;;;;;;;;;;;13.90;99.90;;;;;;4996417;28;20285;-78
2023/09/22 17:04:23;;;;;;;;;;;14.00;99.90;;;;;;4979041;28;19926;-77
2023/09/22 17:06:49;;;;;;;;;;;14.00;99.90;;;;;;4979198;28;20348;-77
2023/09/22 17:09:14;;;;;;;;;;;14.00;99.90;;;;;;4979284;28;19975;-76
2023/09/22 17:11:40;;;;;;;;;;;14.00;99.90;;;;;;4980052;28;20029;-77
2023/09/22 17:14:05;;;;;;;;;;;14.00;99.90;;;;;;4976953;28;19945;-78